메인 페이지
METAR-TAF:

METAR-TAF

공항 :

벵갈루루 국제공항

벵갈루루, 인도

위도: 13-11-56N, 경도: 077-42-20E, 고도: 915m

현재 날씨관측

예보는 31분 전, 14:00시(UTC)에 발표되었습니다.
북북동4kt
온도 24°C
습도 89%
기압 1018 hPa
시정: 6000m
고도 1200ft 상공 구름 보통
고도 2500ft 상공 구름 조금, 적란운.

METAR: VOBL 191400Z 03004KT 6000 SCT012 FEW025CB 24/22 Q1018 NOSIG

시각: 20:01 (14:31 UTC)

예보

예보는 3 시간 31분 전, 11:00시(UTC)에 발표되었습니다.
예보 대상 시간: 19일 12시부터 20일 18시까지 (UTC)
동북동10kt
시정: 6000m
고도 1500ft 상공 구름 보통
일시적
19일 12시부터 19일 15시까지 (UTC)
고도 1200ft 상공 구름 보통
고도 2000ft 상공 구름 보통
고도 2500ft 상공 구름 조금, 적란운.
전환 중
19일 21시부터 19일 22시까지 (UTC)
여러 방향의 바람 2kt
시정: 3000m
고도 800ft 상공 구름 조금
박무
일시적
20일 00시부터 20일 03시까지 (UTC)
시정: 1500m
고도 800ft 상공 구름 보통
박무
전환 중
20일 03시부터 20일 04시까지 (UTC)
동남동10kt
시정: 6000m
고도 1500ft 상공 구름 보통

TAF: VOBL 191100Z 1912/2018 07010KT 6000 SCT015 TEMPO 1912/1915 SCT012 SCT020 FEW025CB BECMG 1921/1922 VRB02KT 3000 BR FEW008 TEMPO 2000/2003 1500 BR SCT008 BECMG 2003/2004 11010KT 6000 SCT015

4,000개 이상의 공항 관측 자료 및 예보 (METAR 및 TAF 보고).

지도상에서 검색 가능한 기상관측소가 노란 점과 빨간 점으로 표시되어 있습니다.

기상관측소 명을 보려면 표시 위로 마우스를 이동하세요.

날씨 관측과 예보를 보려면 클릭하세요.

지도 변경 : 확대하려면 엑스 표시가 있는 녹색 버튼, 축소하려면 빼기 표시가 있는 녹색 버튼, 다음 페이지의 지도를 보려면 녹색 화살표를 클릭하세요.


METAR-TAF: